createdAt,value
2018-07-08T00:00:12.402Z,15.06
2018-07-08T00:01:11.675Z,15.02
2018-07-08T00:02:11.595Z,15.03
2018-07-08T00:03:11.639Z,14.95
2018-07-08T00:04:11.606Z,14.90
2018-07-08T00:05:11.643Z,14.93
2018-07-08T00:06:11.862Z,14.94
2018-07-08T00:07:11.629Z,14.93
2018-07-08T00:08:11.606Z,14.88
2018-07-08T00:09:11.583Z,14.88
2018-07-08T00:10:11.680Z,14.78
2018-07-08T00:11:11.946Z,14.84
2018-07-08T00:12:11.630Z,14.81
2018-07-08T00:13:11.598Z,14.78
2018-07-08T00:14:11.549Z,14.84
2018-07-08T00:15:11.606Z,14.80
2018-07-08T00:16:11.544Z,14.69
2018-07-08T00:17:11.649Z,14.74
2018-07-08T00:18:11.414Z,14.81
2018-07-08T00:19:11.401Z,14.71
2018-07-08T00:20:11.465Z,14.62
2018-07-08T00:21:11.495Z,14.67
2018-07-08T00:22:11.476Z,14.67
2018-07-08T00:23:11.418Z,14.57
2018-07-08T00:24:11.400Z,14.56
2018-07-08T00:25:11.344Z,14.62
2018-07-08T00:26:11.322Z,14.57
2018-07-08T00:27:11.316Z,14.60
2018-07-08T00:28:11.324Z,14.56
2018-07-08T00:29:11.350Z,14.54
2018-07-08T00:30:11.378Z,14.39
2018-07-08T00:31:11.273Z,14.46
2018-07-08T00:32:11.253Z,14.53
2018-07-08T00:33:11.279Z,14.44
2018-07-08T00:34:11.338Z,14.47
2018-07-08T00:35:11.368Z,14.49
2018-07-08T00:36:11.205Z,14.50
2018-07-08T00:37:11.203Z,14.42
2018-07-08T00:38:11.201Z,14.46
2018-07-08T00:39:11.395Z,14.43
2018-07-08T00:40:11.280Z,14.43
2018-07-08T00:41:11.254Z,14.38
2018-07-08T00:42:11.212Z,14.38
2018-07-08T00:43:11.293Z,14.43
2018-07-08T00:44:11.289Z,14.34
2018-07-08T00:45:11.191Z,14.38
2018-07-08T00:46:11.182Z,14.29
2018-07-08T00:47:11.185Z,14.25
2018-07-08T00:48:11.152Z,14.27
2018-07-08T00:49:11.168Z,14.25
2018-07-08T00:50:11.269Z,14.20
2018-07-08T00:51:11.162Z,14.14
2018-07-08T00:52:11.165Z,14.21
2018-07-08T00:53:11.097Z,14.19
2018-07-08T00:54:11.061Z,14.02
2018-07-08T00:55:11.009Z,14.01
2018-07-08T00:56:10.979Z,13.98
2018-07-08T00:57:11.035Z,14.09
2018-07-08T00:58:10.979Z,14.06
2018-07-08T00:59:11.014Z,14.02
2018-07-08T01:00:11.190Z,14.04
2018-07-08T01:01:10.991Z,13.94
2018-07-08T01:02:10.995Z,13.96
2018-07-08T01:03:10.992Z,13.87
2018-07-08T01:04:10.882Z,13.95
2018-07-08T01:05:10.932Z,13.84
2018-07-08T01:06:11.049Z,13.84
2018-07-08T01:07:10.853Z,13.81
2018-07-08T01:08:10.833Z,13.76
2018-07-08T01:09:10.826Z,13.83
2018-07-08T01:10:10.809Z,13.77
2018-07-08T01:11:10.828Z,13.67
2018-07-08T01:12:10.793Z,13.65
2018-07-08T01:13:10.780Z,13.65
2018-07-08T01:14:10.764Z,13.62
2018-07-08T01:15:10.756Z,13.63
2018-07-08T01:16:10.744Z,13.65
2018-07-08T01:17:10.777Z,13.58
2018-07-08T01:18:10.715Z,13.56
2018-07-08T01:19:10.709Z,13.54
2018-07-08T01:20:10.694Z,13.56
2018-07-08T01:21:10.679Z,13.52
2018-07-08T01:22:10.700Z,13.55
2018-07-08T01:23:10.657Z,13.55
2018-07-08T01:24:10.654Z,13.58
2018-07-08T01:25:10.634Z,13.52
2018-07-08T01:26:10.624Z,13.47
2018-07-08T01:27:10.649Z,13.40
2018-07-08T01:28:10.601Z,13.54
2018-07-08T01:29:10.596Z,13.52
2018-07-08T01:30:10.586Z,13.51
2018-07-08T01:31:10.565Z,13.54
2018-07-08T01:32:10.563Z,13.58
2018-07-08T01:33:10.564Z,13.46
2018-07-08T01:34:10.539Z,13.52
2018-07-08T01:35:10.520Z,13.54
2018-07-08T01:36:10.512Z,13.33
2018-07-08T01:37:10.498Z,13.41
2018-07-08T01:38:10.511Z,13.40
2018-07-08T01:39:10.482Z,13.33
2018-07-08T01:40:10.458Z,13.33
2018-07-08T01:41:10.457Z,13.24
2018-07-08T01:42:10.437Z,13.40
2018-07-08T01:43:10.460Z,13.24
2018-07-08T01:44:10.420Z,13.18
2018-07-08T01:45:10.408Z,13.15
2018-07-08T01:46:10.394Z,13.17
2018-07-08T01:47:10.387Z,13.15
2018-07-08T01:48:10.396Z,13.17
2018-07-08T01:49:10.364Z,13.18
2018-07-08T01:50:10.344Z,13.03
2018-07-08T01:51:10.338Z,13.11
2018-07-08T01:52:10.330Z,13.12
2018-07-08T01:53:10.315Z,12.99
2018-07-08T01:54:10.325Z,13.02
2018-07-08T01:55:10.293Z,12.99
2018-07-08T01:56:10.285Z,13.04
2018-07-08T01:57:10.269Z,13.00
2018-07-08T01:58:10.258Z,13.02
2018-07-08T01:59:10.264Z,12.88
2018-07-08T02:00:10.234Z,12.95
2018-07-08T02:01:10.226Z,12.82
2018-07-08T02:02:10.204Z,12.81
2018-07-08T02:03:10.199Z,12.87
2018-07-08T02:04:10.206Z,12.81
2018-07-08T02:05:10.177Z,12.84
2018-07-08T02:06:10.162Z,12.78
2018-07-08T02:07:10.159Z,12.77
2018-07-08T02:08:10.136Z,12.70
2018-07-08T02:09:10.167Z,12.63
2018-07-08T02:10:10.113Z,12.67
2018-07-08T02:11:10.111Z,12.59
2018-07-08T02:12:10.092Z,12.63
2018-07-08T02:13:10.089Z,12.66
2018-07-08T02:14:10.074Z,12.54
2018-07-08T02:15:10.084Z,12.52
2018-07-08T02:16:10.056Z,12.63
2018-07-08T02:17:10.043Z,12.57
2018-07-08T02:18:10.025Z,12.52
2018-07-08T02:19:10.016Z,12.54
2018-07-08T02:20:10.028Z,12.48
2018-07-08T02:21:09.991Z,12.44
2018-07-08T02:22:09.988Z,12.44
2018-07-08T02:23:09.965Z,12.41
2018-07-08T02:24:09.966Z,12.48
2018-07-08T02:25:09.965Z,12.44
2018-07-08T02:26:09.939Z,12.45
2018-07-08T02:27:09.919Z,12.38
2018-07-08T02:28:09.916Z,12.48
2018-07-08T02:29:09.898Z,12.34
2018-07-08T02:30:09.927Z,12.34
2018-07-08T02:31:09.880Z,12.31
2018-07-08T02:32:09.863Z,12.38
2018-07-08T02:33:09.856Z,12.29
2018-07-08T02:34:09.844Z,12.30
2018-07-08T02:35:09.841Z,12.24
2018-07-08T02:36:09.847Z,12.19
2018-07-08T02:37:09.810Z,12.19
2018-07-08T02:38:09.799Z,12.16
2018-07-08T02:39:09.792Z,12.15
2018-07-08T02:40:09.771Z,12.12
2018-07-08T02:41:09.795Z,12.13
2018-07-08T02:42:09.749Z,12.15
2018-07-08T02:43:09.748Z,12.13
2018-07-08T02:44:09.731Z,12.08
2018-07-08T02:45:09.718Z,12.09
2018-07-08T02:46:09.731Z,12.04
2018-07-08T02:47:09.701Z,12.06
2018-07-08T02:48:09.688Z,12.08
2018-07-08T02:49:09.679Z,11.97
2018-07-08T02:50:09.667Z,12.04
2018-07-08T02:51:09.680Z,12.04
2018-07-08T02:52:09.641Z,12.09
2018-07-08T02:53:09.632Z,12.04
2018-07-08T02:54:09.612Z,12.02
2018-07-08T02:55:09.599Z,12.01
2018-07-08T02:56:09.597Z,11.97
2018-07-08T02:57:09.605Z,12.01
2018-07-08T02:58:09.570Z,11.99
2018-07-08T02:59:09.554Z,11.90
2018-07-08T03:00:09.552Z,11.90
2018-07-08T03:01:09.532Z,11.94
2018-07-08T03:02:09.549Z,11.94
2018-07-08T03:03:09.523Z,11.89
2018-07-08T03:04:09.499Z,11.97
2018-07-08T03:05:09.494Z,11.94
2018-07-08T03:06:09.481Z,11.86
2018-07-08T03:07:09.484Z,11.82
2018-07-08T03:08:09.462Z,11.96
2018-07-08T03:09:09.440Z,11.86
2018-07-08T03:10:09.437Z,11.74
2018-07-08T03:11:09.421Z,11.78
2018-07-08T03:12:09.433Z,11.75
2018-07-08T03:13:09.397Z,11.80
2018-07-08T03:14:09.391Z,11.72
2018-07-08T03:15:09.380Z,11.62
2018-07-08T03:16:09.361Z,11.54
2018-07-08T03:17:09.386Z,11.53
2018-07-08T03:18:09.345Z,11.59
2018-07-08T03:19:09.331Z,11.59
2018-07-08T03:20:09.324Z,11.57
2018-07-08T03:21:09.309Z,11.64
2018-07-08T03:22:09.297Z,11.53
2018-07-08T03:23:09.312Z,11.43
2018-07-08T03:24:09.269Z,11.53
2018-07-08T03:25:09.262Z,11.44
2018-07-08T03:26:09.252Z,11.39
2018-07-08T03:27:09.242Z,11.50
2018-07-08T03:28:09.248Z,11.43
2018-07-08T03:29:09.213Z,11.46
2018-07-08T03:30:09.211Z,11.36
2018-07-08T03:31:09.191Z,11.32
2018-07-08T03:32:09.188Z,11.49
2018-07-08T03:33:09.188Z,11.38
2018-07-08T03:34:09.157Z,11.36
2018-07-08T03:35:09.146Z,11.38
2018-07-08T03:36:09.132Z,11.36
2018-07-08T03:37:09.128Z,11.44
2018-07-08T03:38:09.145Z,11.31
2018-07-08T03:39:09.099Z,11.36
2018-07-08T03:40:09.098Z,11.29
2018-07-08T03:41:09.076Z,11.32
2018-07-08T03:42:09.073Z,11.43
2018-07-08T03:43:09.060Z,11.39
2018-07-08T03:44:09.070Z,11.41
2018-07-08T03:45:09.033Z,11.31
2018-07-08T03:46:09.025Z,11.43
2018-07-08T03:47:09.017Z,11.34
2018-07-08T03:48:08.998Z,11.36
2018-07-08T03:49:09.011Z,11.27
2018-07-08T03:50:08.979Z,11.35
2018-07-08T03:51:08.971Z,11.35
2018-07-08T03:52:08.962Z,11.38
2018-07-08T03:53:08.942Z,11.34
2018-07-08T03:54:08.963Z,11.31
2018-07-08T03:55:08.916Z,11.35
2018-07-08T03:56:08.909Z,11.36
2018-07-08T03:57:08.894Z,11.32
2018-07-08T03:58:08.886Z,11.41
2018-07-08T03:59:08.869Z,11.46
2018-07-08T04:00:08.887Z,11.47
2018-07-08T04:01:08.844Z,11.44
2018-07-08T04:02:08.841Z,11.46
2018-07-08T04:03:08.821Z,11.49
2018-07-08T04:04:08.811Z,11.41
2018-07-08T04:05:08.820Z,11.39
2018-07-08T04:06:08.793Z,11.35
2018-07-08T04:07:08.782Z,11.39
2018-07-08T04:08:08.762Z,11.27
2018-07-08T04:09:08.758Z,11.41
2018-07-08T04:10:08.764Z,11.36
2018-07-08T04:11:08.725Z,11.38
2018-07-08T04:12:08.723Z,11.38
2018-07-08T04:13:08.701Z,11.29
2018-07-08T04:14:08.698Z,11.39
2018-07-08T04:15:08.707Z,11.34
2018-07-08T04:16:08.672Z,11.31
2018-07-08T04:17:08.656Z,11.28
2018-07-08T04:18:08.648Z,11.25
2018-07-08T04:19:08.638Z,11.31
2018-07-08T04:20:08.656Z,11.31
2018-07-08T04:21:08.614Z,11.27
2018-07-08T04:22:08.594Z,11.35
2018-07-08T04:23:08.591Z,11.32
2018-07-08T04:24:08.573Z,11.36
2018-07-08T04:25:08.564Z,11.38
2018-07-08T04:26:08.589Z,11.32
2018-07-08T04:27:08.543Z,11.34
2018-07-08T04:28:08.522Z,11.36
2018-07-08T04:29:08.514Z,11.46
2018-07-08T04:30:08.506Z,11.31
2018-07-08T04:31:08.515Z,11.39
2018-07-08T04:32:08.477Z,11.46
2018-07-08T04:33:08.461Z,11.38
2018-07-08T04:34:08.459Z,11.44
2018-07-08T04:35:08.442Z,11.44
2018-07-08T04:36:08.453Z,11.36
2018-07-08T04:37:08.421Z,11.43
2018-07-08T04:38:08.406Z,11.44
2018-07-08T04:39:08.400Z,11.41
2018-07-08T04:40:08.384Z,11.38
2018-07-08T04:41:08.406Z,11.35
2018-07-08T04:42:08.362Z,11.43
2018-07-08T04:43:08.350Z,11.50
2018-07-08T04:44:08.336Z,11.41
2018-07-08T04:45:08.322Z,11.46
2018-07-08T04:46:08.350Z,11.46
2018-07-08T04:47:08.301Z,11.50
2018-07-08T04:48:08.293Z,11.44
2018-07-08T04:49:08.334Z,11.49
2018-07-08T04:50:08.260Z,11.49
2018-07-08T04:51:08.257Z,11.46
2018-07-08T04:52:08.259Z,11.47
2018-07-08T04:53:08.234Z,11.50
2018-07-08T04:54:08.213Z,11.50
2018-07-08T04:55:08.207Z,11.53
2018-07-08T04:56:08.198Z,11.56
2018-07-08T04:57:08.199Z,11.53
2018-07-08T04:58:08.170Z,11.57
2018-07-08T04:59:08.163Z,11.53
2018-07-08T05:00:08.142Z,11.57
2018-07-08T05:01:08.139Z,11.65
2018-07-08T05:02:08.143Z,11.59
2018-07-08T05:03:08.106Z,11.62
2018-07-08T05:04:08.103Z,11.65
2018-07-08T05:05:08.083Z,11.61
2018-07-08T05:06:08.081Z,11.62
2018-07-08T05:07:08.094Z,11.71
2018-07-08T05:08:08.052Z,11.72
2018-07-08T05:09:08.037Z,11.74
2018-07-08T05:10:08.029Z,11.74
2018-07-08T05:11:08.022Z,11.75
2018-07-08T05:12:08.008Z,11.75
2018-07-08T05:13:08.016Z,11.72
2018-07-08T05:14:07.987Z,11.82
2018-07-08T05:15:07.968Z,11.80
2018-07-08T05:16:07.966Z,11.90
2018-07-08T05:17:07.945Z,11.89
2018-07-08T05:18:07.967Z,11.93
2018-07-08T05:19:07.924Z,11.93
2018-07-08T05:20:07.916Z,12.02
2018-07-08T05:21:07.902Z,11.94
2018-07-08T05:22:07.893Z,11.97
2018-07-08T05:23:07.909Z,12.01
2018-07-08T05:24:07.865Z,12.05
2018-07-08T05:25:07.859Z,12.06
2018-07-08T05:26:07.849Z,12.16
2018-07-08T05:27:07.832Z,12.19
2018-07-08T05:28:07.831Z,12.21
2018-07-08T05:29:07.829Z,12.33
2018-07-08T05:30:07.799Z,12.37
2018-07-08T05:31:07.795Z,12.29
2018-07-08T05:32:07.777Z,12.37
2018-07-08T05:33:07.765Z,12.48
2018-07-08T05:34:07.778Z,12.37
2018-07-08T05:35:07.751Z,12.38
2018-07-08T05:36:07.730Z,12.48
2018-07-08T05:37:07.717Z,12.46
2018-07-08T05:38:07.715Z,12.45
2018-07-08T05:39:07.722Z,12.52
2018-07-08T05:40:07.691Z,12.59
2018-07-08T05:41:07.677Z,12.59
2018-07-08T05:42:07.662Z,12.59
2018-07-08T05:43:07.656Z,12.59
2018-07-08T05:44:07.658Z,12.70
2018-07-08T05:45:07.634Z,12.64
2018-07-08T05:46:07.620Z,12.70
2018-07-08T05:47:07.608Z,12.78
2018-07-08T05:48:07.594Z,12.81
2018-07-08T05:49:07.608Z,12.84
2018-07-08T05:50:07.604Z,12.89
2018-07-08T05:51:07.560Z,12.85
2018-07-08T05:52:07.552Z,12.89
2018-07-08T05:53:07.547Z,13.04
2018-07-08T05:54:07.522Z,13.00
2018-07-08T05:55:07.542Z,12.97
2018-07-08T05:56:07.506Z,13.14
2018-07-08T05:57:07.492Z,13.17
2018-07-08T05:58:07.483Z,13.18
2018-07-08T05:59:07.466Z,13.22
2018-07-08T06:00:07.486Z,13.29
2018-07-08T06:01:07.448Z,13.44
2018-07-08T06:02:07.441Z,13.38
2018-07-08T06:03:07.429Z,13.44
2018-07-08T06:04:07.407Z,13.49
2018-07-08T06:05:07.426Z,13.52
2018-07-08T06:06:07.386Z,13.55
2018-07-08T06:07:07.373Z,13.73
2018-07-08T06:08:07.371Z,13.76
2018-07-08T06:09:07.349Z,13.74
2018-07-08T06:10:07.368Z,13.81
2018-07-08T06:11:07.332Z,13.89
2018-07-08T06:12:07.320Z,13.98
2018-07-08T06:13:07.309Z,13.89
2018-07-08T06:14:07.294Z,14.02
2018-07-08T06:15:07.321Z,14.29
2018-07-08T06:16:07.275Z,14.32
2018-07-08T06:17:07.259Z,14.47
2018-07-08T06:18:07.255Z,14.49
2018-07-08T06:19:07.234Z,14.61
2018-07-08T06:20:07.231Z,14.69
2018-07-08T06:21:07.239Z,14.86
2018-07-08T06:22:07.204Z,14.98
2018-07-08T06:23:07.191Z,15.09
2018-07-08T06:24:07.183Z,15.38
2018-07-08T06:25:07.177Z,15.42
2018-07-08T06:26:07.179Z,15.52
2018-07-08T06:27:07.146Z,15.61
2018-07-08T06:28:07.159Z,15.79
2018-07-08T06:29:07.128Z,16.03
2018-07-08T06:30:07.110Z,16.07
2018-07-08T06:31:07.117Z,16.33
2018-07-08T06:32:07.093Z,16.25
2018-07-08T06:33:07.079Z,16.45
2018-07-08T06:34:07.064Z,16.59
2018-07-08T06:35:07.058Z,16.73
2018-07-08T06:36:07.062Z,16.86
2018-07-08T06:37:07.030Z,17.10
2018-07-08T06:38:07.041Z,17.13
2018-07-08T06:39:07.014Z,17.35
2018-07-08T06:40:06.998Z,17.28
2018-07-08T06:41:07.008Z,17.54
2018-07-08T06:42:06.977Z,17.71
2018-07-08T06:43:06.966Z,17.88
2018-07-08T06:44:06.950Z,18.10
2018-07-08T06:45:06.938Z,18.13
2018-07-08T06:46:06.953Z,18.33
2018-07-08T06:47:06.926Z,18.46
2018-07-08T06:48:06.927Z,18.61
2018-07-08T06:49:06.928Z,18.55
2018-07-08T06:50:06.886Z,18.62
2018-07-08T06:51:06.898Z,18.74
2018-07-08T06:52:06.881Z,18.86
2018-07-08T06:53:06.851Z,18.91
2018-07-08T06:54:06.839Z,19.02
2018-07-08T06:55:06.825Z,19.17
2018-07-08T06:56:06.819Z,19.32
2018-07-08T06:57:06.829Z,19.36
2018-07-08T06:58:06.787Z,19.42
2018-07-08T06:59:06.778Z,19.51
2018-07-08T07:00:06.769Z,19.58
2018-07-08T07:01:06.756Z,19.72
2018-07-08T07:02:06.768Z,19.75
2018-07-08T07:03:06.727Z,19.94
2018-07-08T07:04:06.747Z,19.86
2018-07-08T07:05:06.710Z,19.95
2018-07-08T07:06:06.696Z,19.95
2018-07-08T07:07:06.712Z,20.05
2018-07-08T07:08:06.670Z,19.93
2018-07-08T07:09:06.668Z,20.05
2018-07-08T07:10:06.648Z,20.10
2018-07-08T07:11:06.642Z,20.23
2018-07-08T07:12:06.653Z,20.28
2018-07-08T07:13:06.620Z,20.47
2018-07-08T07:14:06.605Z,20.51
2018-07-08T07:15:06.611Z,20.39
2018-07-08T07:16:06.584Z,20.43
2018-07-08T07:17:06.598Z,20.61
2018-07-08T07:18:06.563Z,20.68
2018-07-08T07:19:06.569Z,20.81
2018-07-08T07:20:06.558Z,20.77
2018-07-08T07:21:06.536Z,20.93
2018-07-08T07:22:06.513Z,20.96
2018-07-08T07:23:06.620Z,21.06
2018-07-08T07:24:06.509Z,21.08
2018-07-08T07:25:06.486Z,21.24
2018-07-08T07:26:06.480Z,21.36
2018-07-08T07:27:06.464Z,21.56
2018-07-08T07:28:06.475Z,21.51
2018-07-08T07:29:06.443Z,21.63
2018-07-08T07:30:06.429Z,21.66
2018-07-08T07:31:06.423Z,21.71
2018-07-08T07:32:06.401Z,21.85
2018-07-08T07:33:06.426Z,21.90
2018-07-08T07:34:06.383Z,21.97
2018-07-08T07:35:06.375Z,22.04
2018-07-08T07:36:06.358Z,22.07
2018-07-08T07:37:06.365Z,22.20
2018-07-08T07:38:06.389Z,22.37
2018-07-08T07:39:06.336Z,22.50
2018-07-08T07:40:06.311Z,22.54
2018-07-08T07:41:06.307Z,22.56
2018-07-08T07:42:06.296Z,22.64
2018-07-08T07:43:06.317Z,22.65
2018-07-08T07:44:06.272Z,22.69
2018-07-08T07:45:06.267Z,22.78
2018-07-08T07:46:06.255Z,22.92
2018-07-08T07:47:06.241Z,22.94
2018-07-08T07:48:06.226Z,22.96
2018-07-08T07:49:06.240Z,22.96
2018-07-08T07:50:06.203Z,23.14
2018-07-08T07:51:06.196Z,23.22
2018-07-08T07:52:06.179Z,23.23
2018-07-08T07:53:06.178Z,23.40
2018-07-08T07:54:06.181Z,23.45
2018-07-08T07:55:06.146Z,23.57
2018-07-08T07:56:06.145Z,23.67
2018-07-08T07:57:06.141Z,23.58
2018-07-08T07:58:06.117Z,23.75
2018-07-08T07:59:06.196Z,23.76
2018-07-08T08:00:06.100Z,23.76
2018-07-08T08:01:06.091Z,23.80
2018-07-08T08:02:06.069Z,23.94
2018-07-08T08:03:06.062Z,23.95
2018-07-08T08:04:06.078Z,23.77
2018-07-08T08:05:06.046Z,23.85
2018-07-08T08:06:06.041Z,23.95
2018-07-08T08:07:06.020Z,24.12
2018-07-08T08:08:06.015Z,24.34
2018-07-08T08:09:05.993Z,24.38
2018-07-08T08:10:06.020Z,24.50
2018-07-08T08:11:05.980Z,24.56
2018-07-08T08:12:06.004Z,24.63
2018-07-08T08:13:06.052Z,24.76
2018-07-08T08:14:05.980Z,24.75
2018-07-08T08:15:05.962Z,24.91
2018-07-08T08:16:05.918Z,24.95
2018-07-08T08:17:05.913Z,25.13
2018-07-08T08:18:05.903Z,25.19
2018-07-08T08:19:05.925Z,25.27
2018-07-08T08:20:05.904Z,25.37
2018-07-08T08:21:05.893Z,25.44
2018-07-08T08:22:05.895Z,25.61
2018-07-08T08:23:05.845Z,25.67
2018-07-08T08:24:05.841Z,25.71
2018-07-08T08:25:05.857Z,25.43
2018-07-08T08:26:05.815Z,25.43
2018-07-08T08:27:05.809Z,25.44
2018-07-08T08:28:05.789Z,25.49
2018-07-08T08:29:05.784Z,25.80
2018-07-08T08:30:05.796Z,25.89
2018-07-08T08:31:05.759Z,26.18
2018-07-08T08:32:05.757Z,26.42
2018-07-08T08:33:05.744Z,26.50
2018-07-08T08:34:05.730Z,26.62
2018-07-08T08:35:05.749Z,26.73
2018-07-08T08:36:05.720Z,26.74
2018-07-08T08:37:05.696Z,26.83
2018-07-08T08:38:05.738Z,26.81
2018-07-08T08:39:05.681Z,27.02
2018-07-08T08:40:05.691Z,26.99
2018-07-08T08:41:05.663Z,27.11
2018-07-08T08:42:05.649Z,27.17
2018-07-08T08:43:05.642Z,27.36
2018-07-08T08:44:05.628Z,27.50
2018-07-08T08:45:05.658Z,27.67
2018-07-08T08:46:05.606Z,27.85
2018-07-08T08:47:05.595Z,27.85
2018-07-08T08:48:05.588Z,27.74
2018-07-08T08:49:05.580Z,27.59
2018-07-08T08:50:05.570Z,27.53
2018-07-08T08:51:05.579Z,27.67
2018-07-08T08:52:05.540Z,27.76
2018-07-08T08:53:05.538Z,27.80
2018-07-08T08:54:05.518Z,27.86
2018-07-08T08:55:05.572Z,28.03
2018-07-08T08:56:05.527Z,28.16
2018-07-08T08:57:05.492Z,28.16
2018-07-08T08:58:05.485Z,28.11
2018-07-08T08:59:05.472Z,28.17
2018-07-08T09:00:05.465Z,28.14
2018-07-08T09:01:05.509Z,28.17
2018-07-08T09:02:05.444Z,28.33
2018-07-08T09:03:05.429Z,28.47
2018-07-08T09:04:05.427Z,28.62
2018-07-08T09:05:05.409Z,28.77
2018-07-08T09:06:05.427Z,28.85
2018-07-08T09:07:05.387Z,28.80
2018-07-08T09:08:05.384Z,28.72
2018-07-08T09:09:05.369Z,28.80
2018-07-08T09:10:05.369Z,28.93
2018-07-08T09:11:05.381Z,28.91
2018-07-08T09:12:05.350Z,28.88
2018-07-08T09:13:05.363Z,28.85
2018-07-08T09:14:05.320Z,28.84
2018-07-08T09:15:05.316Z,28.80
2018-07-08T09:16:05.304Z,28.81
2018-07-08T09:17:05.314Z,28.84
2018-07-08T09:18:05.294Z,29.00
2018-07-08T09:19:05.280Z,29.26
2018-07-08T09:20:05.263Z,29.38
2018-07-08T09:21:05.256Z,29.59
2018-07-08T09:22:05.273Z,29.86
2018-07-08T09:23:05.261Z,30.02
2018-07-08T09:24:05.290Z,30.03
2018-07-08T09:25:05.224Z,29.94
2018-07-08T09:26:05.207Z,29.90
2018-07-08T09:27:05.225Z,29.86
2018-07-08T09:28:05.199Z,29.63
2018-07-08T09:29:05.184Z,29.82
2018-07-08T09:30:05.179Z,29.84
2018-07-08T09:31:05.168Z,29.82
2018-07-08T09:32:05.172Z,29.97
2018-07-08T09:33:05.146Z,30.11
2018-07-08T09:34:05.139Z,30.29
2018-07-08T09:35:05.121Z,30.40
2018-07-08T09:36:05.120Z,30.40
2018-07-08T09:37:05.131Z,30.29
2018-07-08T09:38:05.097Z,30.24
2018-07-08T09:39:05.146Z,30.33
2018-07-08T09:40:06.029Z,30.53
2018-07-08T09:41:05.077Z,30.61
2018-07-08T09:42:05.082Z,30.76
2018-07-08T09:43:05.057Z,30.94
2018-07-08T09:44:05.038Z,30.74
2018-07-08T09:45:05.034Z,30.94
2018-07-08T09:46:05.021Z,31.12
2018-07-08T09:47:05.059Z,31.12
2018-07-08T09:48:05.006Z,31.18
2018-07-08T09:49:04.999Z,31.33
2018-07-08T09:50:04.989Z,31.50
2018-07-08T09:51:04.978Z,31.57
2018-07-08T09:52:05.013Z,31.67
2018-07-08T09:53:04.980Z,31.76
2018-07-08T09:54:04.953Z,31.84
2018-07-08T09:55:04.944Z,31.82
2018-07-08T09:56:04.936Z,32.03
2018-07-08T09:57:04.926Z,32.17
2018-07-08T09:58:04.984Z,32.07
2018-07-08T09:59:04.913Z,32.15
2018-07-08T10:00:04.900Z,32.30
2018-07-08T10:01:04.890Z,32.30
2018-07-08T10:02:04.884Z,32.49
2018-07-08T10:03:04.902Z,32.33
2018-07-08T10:04:04.867Z,32.24
2018-07-08T10:05:04.853Z,32.17
2018-07-08T10:06:04.847Z,32.21
2018-07-08T10:07:04.833Z,32.13
2018-07-08T10:08:04.867Z,31.96
2018-07-08T10:09:04.814Z,31.85
2018-07-08T10:10:04.814Z,31.64
2018-07-08T10:11:04.794Z,31.76
2018-07-08T10:12:04.795Z,31.95
2018-07-08T10:13:04.812Z,32.15
2018-07-08T10:14:04.795Z,32.33
2018-07-08T10:15:04.769Z,32.57
2018-07-08T10:16:04.758Z,32.57
2018-07-08T10:17:04.752Z,32.57
2018-07-08T10:18:04.765Z,32.71
2018-07-08T10:19:04.731Z,32.84
2018-07-08T10:20:04.757Z,33.06
2018-07-08T10:21:04.712Z,32.96
2018-07-08T10:22:04.708Z,33.03
2018-07-08T10:23:04.728Z,33.15
2018-07-08T10:24:04.681Z,33.11
2018-07-08T10:25:04.675Z,33.27
2018-07-08T10:26:04.671Z,33.42
2018-07-08T10:27:04.666Z,33.45
2018-07-08T10:28:04.683Z,33.61
2018-07-08T10:29:04.651Z,33.70
2018-07-08T10:30:04.669Z,33.80
2018-07-08T10:31:04.645Z,33.71
2018-07-08T10:32:04.621Z,33.85
2018-07-08T10:33:04.614Z,33.92
2018-07-08T10:34:04.633Z,33.87
2018-07-08T10:35:04.599Z,33.97
2018-07-08T10:36:04.592Z,34.14
2018-07-08T10:37:04.589Z,34.29
2018-07-08T10:38:04.601Z,34.45
2018-07-08T10:39:04.583Z,34.51
2018-07-08T10:40:04.564Z,34.54
2018-07-08T10:41:04.552Z,34.48
2018-07-08T10:42:04.545Z,34.46
2018-07-08T10:43:04.533Z,34.46
2018-07-08T10:44:04.548Z,34.51
2018-07-08T10:45:04.520Z,34.64
2018-07-08T10:46:04.513Z,34.80
2018-07-08T10:47:04.507Z,35.06
2018-07-08T10:48:04.488Z,35.03
2018-07-08T10:49:04.506Z,35.11
2018-07-08T10:50:04.522Z,35.25
2018-07-08T10:51:04.471Z,35.23
2018-07-08T10:52:04.461Z,35.25
2018-07-08T10:53:04.454Z,35.30
2018-07-08T10:54:04.465Z,35.14
2018-07-08T10:55:04.443Z,35.08
2018-07-08T10:56:04.425Z,35.18
2018-07-08T10:57:04.430Z,35.21
2018-07-08T10:58:04.411Z,35.21
2018-07-08T10:59:04.456Z,35.18
2018-07-08T11:00:04.400Z,35.21
2018-07-08T11:01:04.387Z,35.02
2018-07-08T11:02:04.380Z,34.98
2018-07-08T11:03:04.366Z,34.58
2018-07-08T11:04:04.366Z,34.44
2018-07-08T11:05:04.378Z,34.34
2018-07-08T11:06:04.342Z,34.39
2018-07-08T11:07:04.335Z,34.53
2018-07-08T11:08:04.329Z,34.57
2018-07-08T11:09:04.320Z,34.69
2018-07-08T11:10:04.324Z,34.77
2018-07-08T11:11:04.293Z,34.83
2018-07-08T11:12:04.293Z,34.84
2018-07-08T11:13:04.282Z,34.84
2018-07-08T11:14:04.279Z,35.01
2018-07-08T11:15:04.300Z,35.23
2018-07-08T11:16:04.251Z,35.08
2018-07-08T11:17:04.244Z,35.01
2018-07-08T11:18:04.237Z,35.07
2018-07-08T11:19:04.226Z,35.20
2018-07-08T11:20:04.207Z,35.23
2018-07-08T11:21:04.226Z,35.28
2018-07-08T11:22:04.194Z,35.23
2018-07-08T11:23:04.184Z,35.26
2018-07-08T11:24:04.170Z,35.11
2018-07-08T11:25:04.189Z,34.92
2018-07-08T11:26:04.156Z,35.01
2018-07-08T11:27:04.145Z,34.96
2018-07-08T11:28:04.125Z,34.92
2018-07-08T11:29:04.121Z,34.88
2018-07-08T11:30:04.111Z,34.88
2018-07-08T11:31:04.125Z,34.89
2018-07-08T11:32:04.084Z,35.06
2018-07-08T11:33:04.111Z,35.02
2018-07-08T11:34:04.085Z,35.02
2018-07-08T11:35:04.060Z,35.07
2018-07-08T11:36:04.070Z,35.14
2018-07-08T11:37:04.040Z,35.29
2018-07-08T11:38:04.027Z,35.51
2018-07-08T11:39:04.016Z,35.76
2018-07-08T11:40:04.010Z,36.07
2018-07-08T11:41:04.025Z,36.08
2018-07-08T11:42:03.987Z,36.30
2018-07-08T11:43:03.976Z,36.58
2018-07-08T11:44:03.975Z,36.64
2018-07-08T11:45:03.964Z,36.72
2018-07-08T11:46:03.979Z,36.95
2018-07-08T11:47:03.945Z,37.09
2018-07-08T11:48:03.939Z,37.16
2018-07-08T11:49:03.923Z,37.05
2018-07-08T11:50:03.923Z,36.91
2018-07-08T11:51:03.908Z,36.83
2018-07-08T11:52:03.922Z,36.85
2018-07-08T11:53:03.894Z,36.91
2018-07-08T11:54:03.876Z,36.76
2018-07-08T11:55:03.873Z,36.67
2018-07-08T11:56:03.862Z,36.92
2018-07-08T11:57:03.876Z,37.01
2018-07-08T11:58:03.843Z,37.20
2018-07-08T11:59:03.841Z,37.35
2018-07-08T12:00:03.824Z,37.41
2018-07-08T12:01:03.823Z,37.43
2018-07-08T12:02:03.830Z,37.48
2018-07-08T12:03:03.800Z,37.54
2018-07-08T12:04:03.791Z,37.67
2018-07-08T12:05:03.793Z,37.74
2018-07-08T12:06:03.781Z,37.76
2018-07-08T12:07:03.798Z,37.81
2018-07-08T12:08:03.762Z,37.93
2018-07-08T12:09:03.756Z,37.95
2018-07-08T12:10:03.744Z,37.92
2018-07-08T12:11:03.740Z,37.88
2018-07-08T12:12:03.753Z,37.62
2018-07-08T12:13:03.727Z,37.76
2018-07-08T12:14:03.709Z,37.88
2018-07-08T12:15:03.705Z,37.81
2018-07-08T12:16:03.702Z,37.73
2018-07-08T12:17:03.722Z,37.71
2018-07-08T12:18:03.681Z,37.67
2018-07-08T12:19:03.669Z,37.81
2018-07-08T12:20:03.671Z,38.01
2018-07-08T12:21:03.665Z,37.92
2018-07-08T12:22:03.649Z,37.89
2018-07-08T12:23:03.664Z,38.05
2018-07-08T12:24:03.637Z,38.03
2018-07-08T12:25:03.633Z,38.04
2018-07-08T12:26:03.614Z,37.98
2018-07-08T12:27:03.613Z,37.88
2018-07-08T12:28:03.623Z,37.68
2018-07-08T12:29:03.593Z,37.54
2018-07-08T12:30:03.592Z,37.42
2018-07-08T12:31:03.583Z,37.29
2018-07-08T12:32:03.564Z,37.32
2018-07-08T12:33:03.579Z,37.23
2018-07-08T12:34:03.552Z,37.28
2018-07-08T12:35:03.549Z,37.35
2018-07-08T12:36:03.528Z,37.66
2018-07-08T12:37:03.526Z,37.48
2018-07-08T12:38:03.541Z,37.64
2018-07-08T12:39:03.508Z,37.70
2018-07-08T12:40:03.496Z,37.86
2018-07-08T12:41:03.484Z,37.77
2018-07-08T12:42:03.484Z,38.03
2018-07-08T12:43:03.496Z,37.92
2018-07-08T12:44:03.491Z,37.86
2018-07-08T12:45:03.456Z,37.81
2018-07-08T12:46:03.454Z,37.92
2018-07-08T12:47:03.451Z,38.12
2018-07-08T12:48:03.446Z,38.30
2018-07-08T12:49:03.417Z,38.34
2018-07-08T12:50:03.441Z,38.26
2018-07-08T12:51:03.403Z,38.44
2018-07-08T12:52:03.397Z,38.63